sensor_id;sensor_type;location;lat;lon;timestamp;pressure;altitude;pressure_sealevel;temperature;humidity
37860;BME280;23698;52.014;5.190;2023-09-19T05:02:05;100782.31;;;19.77;100.00
37860;BME280;23698;52.014;5.190;2023-09-19T05:04:53;100783.38;;;19.20;100.00
37860;BME280;23698;52.014;5.190;2023-09-19T05:07:40;100776.09;;;19.87;100.00
37860;BME280;23698;52.014;5.190;2023-09-19T05:10:27;100776.72;;;19.72;100.00
37860;BME280;23698;52.014;5.190;2023-09-19T05:13:14;100779.56;;;19.77;100.00
37860;BME280;23698;52.014;5.190;2023-09-19T06:06:48;100811.75;;;19.98;100.00
37860;BME280;23698;52.014;5.190;2023-09-19T06:09:35;100800.59;;;19.88;100.00
37860;BME280;23698;52.014;5.190;2023-09-19T06:12:22;100803.44;;;18.86;100.00
37860;BME280;23698;52.014;5.190;2023-09-19T06:15:09;100812.13;;;19.68;100.00
37860;BME280;23698;52.014;5.190;2023-09-19T06:18:00;100804.50;;;20.14;100.00
37860;BME280;23698;52.014;5.190;2023-09-19T06:20:48;100808.81;;;20.27;100.00
37860;BME280;23698;52.014;5.190;2023-09-19T06:23:37;100810.44;;;20.50;100.00
37860;BME280;23698;52.014;5.190;2023-09-19T06:26:24;100807.78;;;19.89;100.00
37860;BME280;23698;52.014;5.190;2023-09-19T06:29:12;100814.28;;;20.49;100.00
37860;BME280;23698;52.014;5.190;2023-09-19T06:31:59;100811.03;;;19.86;100.00
37860;BME280;23698;52.014;5.190;2023-09-19T06:34:51;100808.09;;;19.20;100.00
37860;BME280;23698;52.014;5.190;2023-09-19T06:37:40;100810.69;;;20.49;100.00
37860;BME280;23698;52.014;5.190;2023-09-19T06:40:28;100806.84;;;21.04;100.00
37860;BME280;23698;52.014;5.190;2023-09-19T06:43:16;100815.00;;;20.40;100.00
37860;BME280;23698;52.014;5.190;2023-09-19T06:46:03;100815.94;;;20.50;100.00
37860;BME280;23698;52.014;5.190;2023-09-19T06:48:52;100801.75;;;20.36;100.00
37860;BME280;23698;52.014;5.190;2023-09-19T06:51:38;100813.25;;;20.78;100.00
37860;BME280;23698;52.014;5.190;2023-09-19T06:54:26;100818.19;;;21.08;100.00
37860;BME280;23698;52.014;5.190;2023-09-19T06:57:17;100822.22;;;21.00;100.00
37860;BME280;23698;52.014;5.190;2023-09-19T07:00:06;100810.69;;;21.03;100.00
37860;BME280;23698;52.014;5.190;2023-09-19T07:02:55;100805.53;;;20.80;100.00
37860;BME280;23698;52.014;5.190;2023-09-19T07:05:45;100809.31;;;20.46;100.00
37860;BME280;23698;52.014;5.190;2023-09-19T07:08:33;100814.78;;;20.96;100.00
37860;BME280;23698;52.014;5.190;2023-09-19T07:11:19;100814.63;;;20.80;100.00
37860;BME280;23698;52.014;5.190;2023-09-19T07:14:08;100819.41;;;20.41;100.00
37860;BME280;23698;52.014;5.190;2023-09-19T07:16:56;100822.72;;;21.57;100.00
37860;BME280;23698;52.014;5.190;2023-09-19T07:19:45;100823.44;;;20.55;100.00
37860;BME280;23698;52.014;5.190;2023-09-19T07:22:33;100818.19;;;21.08;100.00
37860;BME280;23698;52.014;5.190;2023-09-19T07:25:21;100829.59;;;21.59;100.00
37860;BME280;23698;52.014;5.190;2023-09-19T07:28:08;100829.97;;;21.36;100.00
37860;BME280;23698;52.014;5.190;2023-09-19T07:31:02;100828.63;;;21.06;100.00
37860;BME280;23698;52.014;5.190;2023-09-19T07:33:50;100834.84;;;21.56;100.00
37860;BME280;23698;52.014;5.190;2023-09-19T07:36:37;100842.88;;;21.62;100.00
37860;BME280;23698;52.014;5.190;2023-09-19T07:39:23;100842.78;;;21.47;100.00
37860;BME280;23698;52.014;5.190;2023-09-19T07:42:10;100837.00;;;21.48;100.00
37860;BME280;23698;52.014;5.190;2023-09-19T07:45:03;100840.66;;;21.59;100.00
37860;BME280;23698;52.014;5.190;2023-09-19T07:47:52;100837.28;;;21.95;100.00
37860;BME280;23698;52.014;5.190;2023-09-19T07:50:39;100840.63;;;21.22;100.00
37860;BME280;23698;52.014;5.190;2023-09-19T07:53:25;100840.47;;;21.39;100.00
37860;BME280;23698;52.014;5.190;2023-09-19T07:56:13;100837.28;;;21.52;100.00
37860;BME280;23698;52.014;5.190;2023-09-19T07:58:59;100847.19;;;21.91;100.00
37860;BME280;23698;52.014;5.190;2023-09-19T08:01:46;100840.34;;;20.91;100.00
37860;BME280;23698;52.014;5.190;2023-09-19T08:04:34;100832.75;;;21.36;100.00
37860;BME280;23698;52.014;5.190;2023-09-19T08:07:21;100838.53;;;21.77;100.00
37860;BME280;23698;52.014;5.190;2023-09-19T08:10:09;100844.81;;;21.62;100.00
37860;BME280;23698;52.014;5.190;2023-09-19T08:12:58;100845.16;;;21.38;100.00
37860;BME280;23698;52.014;5.190;2023-09-19T08:15:45;100844.03;;;21.72;100.00
37860;BME280;23698;52.014;5.190;2023-09-19T08:18:34;100844.94;;;22.35;100.00
37860;BME280;23698;52.014;5.190;2023-09-19T08:21:21;100838.97;;;21.53;100.00
37860;BME280;23698;52.014;5.190;2023-09-19T08:24:11;100843.88;;;21.88;100.00
37860;BME280;23698;52.014;5.190;2023-09-19T08:27:00;100841.78;;;21.63;100.00
37860;BME280;23698;52.014;5.190;2023-09-19T08:29:49;100833.88;;;21.82;100.00
37860;BME280;23698;52.014;5.190;2023-09-19T08:32:37;100841.69;;;21.96;100.00
37860;BME280;23698;52.014;5.190;2023-09-19T08:35:23;100840.41;;;22.19;100.00
37860;BME280;23698;52.014;5.190;2023-09-19T08:38:11;100843.44;;;22.12;100.00
37860;BME280;23698;52.014;5.190;2023-09-19T08:41:00;100836.84;;;22.18;100.00
37860;BME280;23698;52.014;5.190;2023-09-19T08:43:47;100826.22;;;22.53;100.00
37860;BME280;23698;52.014;5.190;2023-09-19T08:46:37;100830.44;;;21.55;100.00
37860;BME280;23698;52.014;5.190;2023-09-19T08:49:32;100830.72;;;22.11;100.00
37860;BME280;23698;52.014;5.190;2023-09-19T08:52:22;100833.72;;;22.88;100.00
37860;BME280;23698;52.014;5.190;2023-09-19T08:55:14;100842.88;;;23.04;100.00
37860;BME280;23698;52.014;5.190;2023-09-19T08:58:12;100844.22;;;22.86;100.00
37860;BME280;23698;52.014;5.190;2023-09-19T09:01:01;100839.94;;;22.32;100.00
37860;BME280;23698;52.014;5.190;2023-09-19T09:03:51;100836.31;;;22.27;100.00
37860;BME280;23698;52.014;5.190;2023-09-19T09:06:39;100835.31;;;22.53;100.00
37860;BME280;23698;52.014;5.190;2023-09-19T09:09:29;100830.31;;;22.40;100.00
37860;BME280;23698;52.014;5.190;2023-09-19T09:12:17;100837.94;;;22.22;100.00
37860;BME280;23698;52.014;5.190;2023-09-19T09:15:05;100839.28;;;22.10;100.00
37860;BME280;23698;52.014;5.190;2023-09-19T09:17:52;100819.31;;;21.92;100.00
37860;BME280;23698;52.014;5.190;2023-09-19T09:20:39;100831.84;;;23.40;100.00
37860;BME280;23698;52.014;5.190;2023-09-19T09:23:27;100831.03;;;23.29;100.00
37860;BME280;23698;52.014;5.190;2023-09-19T09:26:15;100835.34;;;22.58;100.00
37860;BME280;23698;52.014;5.190;2023-09-19T09:29:03;100823.47;;;22.78;100.00
37860;BME280;23698;52.014;5.190;2023-09-19T09:31:49;100820.50;;;23.36;100.00
37860;BME280;23698;52.014;5.190;2023-09-19T09:34:37;100817.44;;;23.48;100.00
37860;BME280;23698;52.014;5.190;2023-09-19T09:37:24;100820.09;;;24.00;100.00
37860;BME280;23698;52.014;5.190;2023-09-19T09:40:12;100823.53;;;23.50;100.00
37860;BME280;23698;52.014;5.190;2023-09-19T09:43:24;100813.63;;;24.20;100.00
37860;BME280;23698;52.014;5.190;2023-09-19T09:46:15;100810.97;;;23.99;100.00
37860;BME280;23698;52.014;5.190;2023-09-19T09:49:22;100809.91;;;23.85;100.00
37860;BME280;23698;52.014;5.190;2023-09-19T09:52:12;100811.81;;;24.49;100.00
37860;BME280;23698;52.014;5.190;2023-09-19T09:55:03;100807.47;;;24.38;100.00
37860;BME280;23698;52.014;5.190;2023-09-19T09:58:15;100810.09;;;25.03;100.00
37860;BME280;23698;52.014;5.190;2023-09-19T10:01:04;100822.25;;;24.73;100.00
37860;BME280;23698;52.014;5.190;2023-09-19T10:03:58;100848.63;;;23.90;100.00
37860;BME280;23698;52.014;5.190;2023-09-19T10:06:46;100835.09;;;23.83;100.00
37860;BME280;23698;52.014;5.190;2023-09-19T10:09:44;100826.66;;;24.24;100.00
37860;BME280;23698;52.014;5.190;2023-09-19T10:12:32;100827.25;;;25.05;100.00
37860;BME280;23698;52.014;5.190;2023-09-19T12:59:31;100735.78;;;23.61;100.00
37860;BME280;23698;52.014;5.190;2023-09-19T13:02:19;100748.16;;;24.39;100.00
37860;BME280;23698;52.014;5.190;2023-09-19T13:05:09;100734.50;;;24.53;100.00
37860;BME280;23698;52.014;5.190;2023-09-19T13:07:56;100747.94;;;24.30;100.00
37860;BME280;23698;52.014;5.190;2023-09-19T13:11:04;100748.44;;;24.43;100.00
37860;BME280;23698;52.014;5.190;2023-09-19T13:14:13;100752.53;;;24.56;100.00
37860;BME280;23698;52.014;5.190;2023-09-19T13:17:03;100745.28;;;25.29;100.00
37860;BME280;23698;52.014;5.190;2023-09-19T13:19:52;100749.50;;;24.86;100.00
37860;BME280;23698;52.014;5.190;2023-09-19T13:22:43;100752.09;;;24.33;100.00
37860;BME280;23698;52.014;5.190;2023-09-19T13:25:35;100753.16;;;24.82;100.00
37860;BME280;23698;52.014;5.190;2023-09-19T13:28:21;100752.59;;;25.92;100.00
37860;BME280;23698;52.014;5.190;2023-09-19T13:31:09;100745.91;;;26.74;100.00
37860;BME280;23698;52.014;5.190;2023-09-19T13:33:57;100738.78;;;25.38;100.00
37860;BME280;23698;52.014;5.190;2023-09-19T13:36:44;100736.97;;;26.39;100.00
37860;BME280;23698;52.014;5.190;2023-09-19T13:39:33;100726.69;;;25.29;100.00
37860;BME280;23698;52.014;5.190;2023-09-19T13:42:21;100725.31;;;25.51;100.00
37860;BME280;23698;52.014;5.190;2023-09-19T13:45:08;100721.69;;;24.97;100.00
37860;BME280;23698;52.014;5.190;2023-09-19T13:47:58;100720.88;;;24.96;100.00
37860;BME280;23698;52.014;5.190;2023-09-19T13:50:46;100729.53;;;24.90;100.00
37860;BME280;23698;52.014;5.190;2023-09-19T13:53:33;100728.59;;;24.25;100.00
37860;BME280;23698;52.014;5.190;2023-09-19T13:56:19;100723.97;;;24.90;100.00
37860;BME280;23698;52.014;5.190;2023-09-19T13:59:07;100716.63;;;25.04;100.00
37860;BME280;23698;52.014;5.190;2023-09-19T14:01:54;100710.75;;;25.40;100.00
37860;BME280;23698;52.014;5.190;2023-09-19T14:04:40;100714.41;;;24.77;100.00
37860;BME280;23698;52.014;5.190;2023-09-19T14:07:28;100727.31;;;24.86;100.00
37860;BME280;23698;52.014;5.190;2023-09-19T14:10:15;100728.38;;;25.73;100.00
37860;BME280;23698;52.014;5.190;2023-09-19T14:13:02;100723.00;;;24.75;100.00
37860;BME280;23698;52.014;5.190;2023-09-19T14:15:49;100726.63;;;24.31;100.00
37860;BME280;23698;52.014;5.190;2023-09-19T14:18:35;100725.03;;;24.64;100.00
37860;BME280;23698;52.014;5.190;2023-09-19T14:21:22;100716.84;;;24.83;100.00
37860;BME280;23698;52.014;5.190;2023-09-19T14:24:10;100721.44;;;24.64;100.00
37860;BME280;23698;52.014;5.190;2023-09-19T14:26:58;100724.53;;;24.86;100.00
37860;BME280;23698;52.014;5.190;2023-09-19T14:29:44;100713.94;;;24.64;100.00
37860;BME280;23698;52.014;5.190;2023-09-19T14:32:31;100718.84;;;24.33;100.00
37860;BME280;23698;52.014;5.190;2023-09-19T14:35:18;100713.97;;;24.59;100.00
37860;BME280;23698;52.014;5.190;2023-09-19T14:38:05;100715.25;;;23.78;100.00
37860;BME280;23698;52.014;5.190;2023-09-19T14:41:00;100722.66;;;24.42;100.00
37860;BME280;23698;52.014;5.190;2023-09-19T14:43:47;100715.34;;;24.62;100.00
37860;BME280;23698;52.014;5.190;2023-09-19T14:46:35;100734.81;;;24.52;100.00
37860;BME280;23698;52.014;5.190;2023-09-19T14:49:22;100728.78;;;23.94;100.00
37860;BME280;23698;52.014;5.190;2023-09-19T14:52:09;100736.03;;;23.70;100.00
37860;BME280;23698;52.014;5.190;2023-09-19T14:54:58;100735.75;;;23.71;100.00
37860;BME280;23698;52.014;5.190;2023-09-19T14:57:50;100727.09;;;23.93;100.00
37860;BME280;23698;52.014;5.190;2023-09-19T15:04:22;100722.66;;;24.42;100.00
37860;BME280;23698;52.014;5.190;2023-09-19T15:07:37;100726.28;;;23.93;100.00
37860;BME280;23698;52.014;5.190;2023-09-19T15:10:26;100729.88;;;25.12;100.00
37860;BME280;23698;52.014;5.190;2023-09-19T15:13:14;100718.06;;;23.67;100.00
37860;BME280;23698;52.014;5.190;2023-09-19T15:16:05;100719.91;;;23.98;100.00
37860;BME280;23698;52.014;5.190;2023-09-19T15:18:54;100732.63;;;23.93;100.00
37860;BME280;23698;52.014;5.190;2023-09-19T15:21:40;100729.25;;;24.52;100.00
37860;BME280;23698;52.014;5.190;2023-09-19T15:24:27;100720.78;;;23.72;100.00
37860;BME280;23698;52.014;5.190;2023-09-19T15:27:15;100717.88;;;24.13;100.00
37860;BME280;23698;52.014;5.190;2023-09-19T15:30:05;100723.25;;;25.08;100.00
37860;BME280;23698;52.014;5.190;2023-09-19T15:32:51;100732.59;;;24.48;100.00
37860;BME280;23698;52.014;5.190;2023-09-19T15:39:38;100731.47;;;24.89;100.00
37860;BME280;23698;52.014;5.190;2023-09-19T15:43:16;100725.53;;;24.27;100.00
37860;BME280;23698;52.014;5.190;2023-09-19T15:50:44;100717.84;;;24.19;100.00
37860;BME280;23698;52.014;5.190;2023-09-19T15:58:20;100721.38;;;24.29;100.00
37860;BME280;23698;52.014;5.190;2023-09-19T16:01:24;100711.19;;;24.15;100.00
37860;BME280;23698;52.014;5.190;2023-09-19T16:05:04;100716.94;;;24.28;100.00
37860;BME280;23698;52.014;5.190;2023-09-19T16:12:51;100720.66;;;24.08;100.00
37860;BME280;23698;52.014;5.190;2023-09-19T16:15:41;100719.53;;;24.09;100.00
37860;BME280;23698;52.014;5.190;2023-09-19T16:18:29;100709.63;;;24.03;100.00
37860;BME280;23698;52.014;5.190;2023-09-19T16:21:20;100715.09;;;24.13;100.00
37860;BME280;23698;52.014;5.190;2023-09-19T16:24:07;100719.78;;;24.13;100.00
37860;BME280;23698;52.014;5.190;2023-09-19T16:26:56;100716.41;;;24.26;100.00
37860;BME280;23698;52.014;5.190;2023-09-19T16:29:44;100719.41;;;23.85;100.00
37860;BME280;23698;52.014;5.190;2023-09-19T16:32:31;100735.75;;;23.71;100.00
37860;BME280;23698;52.014;5.190;2023-09-19T16:35:18;100747.19;;;24.64;100.00
37860;BME280;23698;52.014;5.190;2023-09-19T16:38:04;100750.00;;;22.83;100.00
37860;BME280;23698;52.014;5.190;2023-09-19T16:40:52;100732.31;;;22.73;100.00
37860;BME280;23698;52.014;5.190;2023-09-19T16:43:39;100721.53;;;23.08;100.00
37860;BME280;23698;52.014;5.190;2023-09-19T16:46:28;100731.34;;;23.65;100.00
37860;BME280;23698;52.014;5.190;2023-09-19T16:49:15;100724.19;;;23.54;100.00
37860;BME280;23698;52.014;5.190;2023-09-19T16:52:01;100724.97;;;23.75;100.00
37860;BME280;23698;52.014;5.190;2023-09-19T16:54:48;100723.19;;;23.14;100.00
37860;BME280;23698;52.014;5.190;2023-09-19T16:57:36;100728.06;;;23.58;100.00
37860;BME280;23698;52.014;5.190;2023-09-19T17:00:23;100725.41;;;23.12;100.00
37860;BME280;23698;52.014;5.190;2023-09-19T17:03:12;100730.91;;;22.96;100.00
37860;BME280;23698;52.014;5.190;2023-09-19T17:05:59;100713.22;;;22.92;100.00
37860;BME280;23698;52.014;5.190;2023-09-19T17:08:46;100716.50;;;23.30;100.00
37860;BME280;23698;52.014;5.190;2023-09-19T17:11:33;100711.19;;;23.54;100.00
37860;BME280;23698;52.014;5.190;2023-09-19T17:14:20;100720.09;;;23.36;100.00
37860;BME280;23698;52.014;5.190;2023-09-19T17:17:10;100726.59;;;23.76;100.00
37860;BME280;23698;52.014;5.190;2023-09-19T17:19:58;100730.75;;;23.79;100.00
37860;BME280;23698;52.014;5.190;2023-09-19T17:22:46;100721.97;;;23.56;100.00
37860;BME280;23698;52.014;5.190;2023-09-19T17:25:35;100728.38;;;23.41;100.00
37860;BME280;23698;52.014;5.190;2023-09-19T17:28:22;100720.16;;;23.10;100.00
37860;BME280;23698;52.014;5.190;2023-09-19T17:31:10;100724.00;;;23.25;100.00
37860;BME280;23698;52.014;5.190;2023-09-19T17:33:57;100726.69;;;23.55;100.00
37860;BME280;23698;52.014;5.190;2023-09-19T17:36:45;100728.88;;;23.53;100.00
37860;BME280;23698;52.014;5.190;2023-09-19T17:39:32;100724.84;;;22.94;100.00
37860;BME280;23698;52.014;5.190;2023-09-19T17:42:18;100730.09;;;23.11;100.00
37860;BME280;23698;52.014;5.190;2023-09-19T17:45:05;100725.13;;;23.03;100.00
37860;BME280;23698;52.014;5.190;2023-09-19T17:47:52;100726.50;;;22.49;100.00
37860;BME280;23698;52.014;5.190;2023-09-19T17:50:40;100728.34;;;22.23;100.00
37860;BME280;23698;52.014;5.190;2023-09-19T17:53:29;100718.66;;;22.15;100.00
37860;BME280;23698;52.014;5.190;2023-09-19T17:56:18;100726.84;;;21.84;100.00
37860;BME280;23698;52.014;5.190;2023-09-19T17:59:05;100720.88;;;22.13;100.00
37860;BME280;23698;52.014;5.190;2023-09-19T18:01:52;100725.13;;;22.77;100.00
37860;BME280;23698;52.014;5.190;2023-09-19T18:04:39;100733.09;;;23.05;100.00
37860;BME280;23698;52.014;5.190;2023-09-19T18:07:28;100737.53;;;22.95;100.00
37860;BME280;23698;52.014;5.190;2023-09-19T18:10:19;100740.03;;;22.56;100.00
37860;BME280;23698;52.014;5.190;2023-09-19T18:13:08;100759.13;;;23.14;100.00
37860;BME280;23698;52.014;5.190;2023-09-19T18:15:55;100753.28;;;22.64;100.00
37860;BME280;23698;52.014;5.190;2023-09-19T18:18:43;100761.53;;;22.28;100.00
37860;BME280;23698;52.014;5.190;2023-09-19T18:21:32;100758.06;;;21.90;100.00
37860;BME280;23698;52.014;5.190;2023-09-19T18:24:19;100760.50;;;21.81;100.00
37860;BME280;23698;52.014;5.190;2023-09-19T18:27:07;100753.88;;;21.87;100.00
37860;BME280;23698;52.014;5.190;2023-09-19T18:29:54;100755.22;;;22.53;100.00
37860;BME280;23698;52.014;5.190;2023-09-19T18:32:42;100755.09;;;22.07;100.00
37860;BME280;23698;52.014;5.190;2023-09-19T18:35:30;100755.16;;;22.28;100.00
37860;BME280;23698;52.014;5.190;2023-09-19T18:38:20;100761.88;;;23.04;100.00
37860;BME280;23698;52.014;5.190;2023-09-19T18:41:07;100756.63;;;22.81;100.00
37860;BME280;23698;52.014;5.190;2023-09-19T18:43:57;100758.00;;;22.69;100.00
37860;BME280;23698;52.014;5.190;2023-09-19T18:46:45;100764.06;;;22.71;100.00
37860;BME280;23698;52.014;5.190;2023-09-19T18:49:32;100768.47;;;22.46;100.00
37860;BME280;23698;52.014;5.190;2023-09-19T18:52:22;100752.31;;;22.07;100.00
37860;BME280;23698;52.014;5.190;2023-09-19T18:55:10;100757.97;;;21.75;100.00
37860;BME280;23698;52.014;5.190;2023-09-19T18:57:57;100758.94;;;22.06;100.00
37860;BME280;23698;52.014;5.190;2023-09-19T19:00:46;100761.28;;;22.50;100.00
37860;BME280;23698;52.014;5.190;2023-09-19T19:03:36;100755.63;;;22.04;100.00
37860;BME280;23698;52.014;5.190;2023-09-19T19:06:26;100747.78;;;22.90;100.00
37860;BME280;23698;52.014;5.190;2023-09-19T19:09:13;100744.63;;;22.19;100.00
37860;BME280;23698;52.014;5.190;2023-09-19T19:12:00;100743.88;;;22.44;100.00
37860;BME280;23698;52.014;5.190;2023-09-19T19:14:46;100737.00;;;23.24;100.00
37860;BME280;23698;52.014;5.190;2023-09-19T19:17:35;100739.50;;;23.21;100.00
37860;BME280;23698;52.014;5.190;2023-09-19T19:20:23;100739.47;;;23.26;100.00
37860;BME280;23698;52.014;5.190;2023-09-19T19:23:10;100745.59;;;23.12;100.00
37860;BME280;23698;52.014;5.190;2023-09-19T19:25:57;100740.47;;;22.17;100.00
37860;BME280;23698;52.014;5.190;2023-09-19T19:28:45;100732.84;;;22.70;100.00
37860;BME280;23698;52.014;5.190;2023-09-19T19:31:33;100733.97;;;22.79;100.00
37860;BME280;23698;52.014;5.190;2023-09-19T19:34:24;100740.59;;;22.99;100.00
37860;BME280;23698;52.014;5.190;2023-09-19T19:37:10;100743.56;;;22.31;100.00
37860;BME280;23698;52.014;5.190;2023-09-19T19:39:58;100746.97;;;22.89;100.00
37860;BME280;23698;52.014;5.190;2023-09-19T19:42:47;100739.41;;;23.56;100.00
37860;BME280;23698;52.014;5.190;2023-09-19T19:45:35;100757.19;;;23.09;100.00
37860;BME280;23698;52.014;5.190;2023-09-19T19:48:23;100753.31;;;22.79;100.00
37860;BME280;23698;52.014;5.190;2023-09-19T19:51:11;100747.94;;;22.21;100.00
37860;BME280;23698;52.014;5.190;2023-09-19T19:54:00;100752.47;;;22.58;100.00
37860;BME280;23698;52.014;5.190;2023-09-19T19:56:47;100754.66;;;22.82;100.00
37860;BME280;23698;52.014;5.190;2023-09-19T19:59:33;100757.72;;;22.96;100.00
37860;BME280;23698;52.014;5.190;2023-09-19T21:21:09;100759.94;;;23.40;100.00
37860;BME280;23698;52.014;5.190;2023-09-19T21:23:56;100759.94;;;22.94;100.00
37860;BME280;23698;52.014;5.190;2023-09-19T21:26:43;100754.06;;;23.52;100.00
37860;BME280;23698;52.014;5.190;2023-09-19T21:29:30;100763.00;;;23.18;100.00
37860;BME280;23698;52.014;5.190;2023-09-19T21:32:16;100757.69;;;23.52;100.00
37860;BME280;23698;52.014;5.190;2023-09-19T21:35:04;100753.16;;;23.87;100.00
37860;BME280;23698;52.014;5.190;2023-09-19T21:37:52;100749.59;;;23.82;100.00
37860;BME280;23698;52.014;5.190;2023-09-19T21:40:39;100751.38;;;23.26;100.00
37860;BME280;23698;52.014;5.190;2023-09-19T21:43:25;100740.88;;;23.23;100.00
37860;BME280;23698;52.014;5.190;2023-09-19T21:46:12;100737.75;;;23.55;100.00
37860;BME280;23698;52.014;5.190;2023-09-19T21:48:58;100734.22;;;22.93;100.00
37860;BME280;23698;52.014;5.190;2023-09-19T21:51:49;100731.38;;;23.50;100.00
37860;BME280;23698;52.014;5.190;2023-09-19T21:54:37;100717.63;;;23.29;100.00
37860;BME280;23698;52.014;5.190;2023-09-19T21:57:24;100725.09;;;24.04;100.00
37860;BME280;23698;52.014;5.190;2023-09-19T22:00:11;100720.25;;;23.75;100.00
37860;BME280;23698;52.014;5.190;2023-09-19T22:03:09;100715.38;;;23.42;100.00
37860;BME280;23698;52.014;5.190;2023-09-19T22:06:02;100715.97;;;23.23;100.00
37860;BME280;23698;52.014;5.190;2023-09-19T22:08:50;100715.13;;;23.38;100.00
37860;BME280;23698;52.014;5.190;2023-09-19T22:11:39;100712.41;;;22.92;100.00
37860;BME280;23698;52.014;5.190;2023-09-19T22:14:25;100718.75;;;23.13;100.00
